createdAt,value
2019-03-26T00:00:53.238Z,481.15
2019-03-26T00:01:54.084Z,483.75
2019-03-26T00:02:53.347Z,478.90
2019-03-26T00:04:05.264Z,483.12
2019-03-26T00:04:54.107Z,480.94
2019-03-26T00:05:53.027Z,475.86
2019-03-26T00:06:53.109Z,480.30
2019-03-26T00:07:53.005Z,489.24
2019-03-26T00:08:53.064Z,477.29
2019-03-26T00:09:52.998Z,485.13
2019-03-26T00:10:52.947Z,473.90
2019-03-26T00:11:52.920Z,477.84
2019-03-26T00:12:52.982Z,485.26
2019-03-26T00:13:52.909Z,474.30
2019-03-26T00:14:52.968Z,479.00
2019-03-26T00:15:52.903Z,483.53
2019-03-26T00:16:52.897Z,475.18
2019-03-26T00:17:52.914Z,493.12
2019-03-26T00:18:52.957Z,482.67
2019-03-26T00:19:52.928Z,480.05
2019-03-26T00:20:52.896Z,481.21
2019-03-26T00:21:52.877Z,473.03
2019-03-26T00:22:52.871Z,482.27
2019-03-26T00:23:52.806Z,486.65
2019-03-26T00:24:52.789Z,478.44
2019-03-26T00:25:52.845Z,492.91
2019-03-26T00:26:52.788Z,501.71
2019-03-26T00:27:52.860Z,473.83
2019-03-26T00:28:52.798Z,474.90
2019-03-26T00:29:52.873Z,489.11
2019-03-26T00:30:52.891Z,484.27
2019-03-26T00:31:52.786Z,476.83
2019-03-26T00:32:52.723Z,478.16
2019-03-26T00:33:52.935Z,477.32
2019-03-26T00:34:52.921Z,473.75
2019-03-26T00:35:53.369Z,476.90
2019-03-26T00:36:53.321Z,475.81
2019-03-26T00:37:52.710Z,490.34
2019-03-26T00:38:52.684Z,483.04
2019-03-26T00:39:52.704Z,484.35
2019-03-26T00:40:52.673Z,476.66
2019-03-26T00:41:52.647Z,479.07
2019-03-26T00:42:52.653Z,479.81
2019-03-26T00:43:52.588Z,475.32
2019-03-26T00:44:52.597Z,473.27
2019-03-26T00:45:52.632Z,502.67
2019-03-26T00:46:52.583Z,482.83
2019-03-26T00:47:52.573Z,481.68
2019-03-26T00:48:52.550Z,478.51
2019-03-26T00:49:52.542Z,470.56
2019-03-26T00:50:52.554Z,497.18
2019-03-26T00:51:52.549Z,473.82
2019-03-26T00:52:52.694Z,474.28
2019-03-26T00:53:52.496Z,481.50
2019-03-26T00:54:52.540Z,491.53
2019-03-26T00:55:52.491Z,477.52
2019-03-26T00:56:52.492Z,479.48
2019-03-26T00:57:52.470Z,484.49
2019-03-26T00:58:52.448Z,474.42
2019-03-26T00:59:52.426Z,471.99
2019-03-26T01:00:52.460Z,472.60
2019-03-26T01:01:52.450Z,479.34
2019-03-26T01:02:52.430Z,476.81
2019-03-26T01:03:55.055Z,475.89
2019-03-26T01:04:52.386Z,471.80
2019-03-26T01:05:52.387Z,472.83
2019-03-26T01:06:52.399Z,472.17
2019-03-26T01:07:52.368Z,474.68
2019-03-26T01:08:52.364Z,494.38
2019-03-26T01:09:52.361Z,480.10
2019-03-26T01:10:52.331Z,474.32
2019-03-26T01:11:52.376Z,471.71
2019-03-26T01:12:52.291Z,474.61
2019-03-26T01:13:52.314Z,474.88
2019-03-26T01:14:52.304Z,479.42
2019-03-26T01:15:52.302Z,473.70
2019-03-26T01:16:52.315Z,479.66
2019-03-26T01:17:52.264Z,482.39
2019-03-26T01:18:52.449Z,480.58
2019-03-26T01:19:52.250Z,475.94
2019-03-26T01:20:52.229Z,477.18
2019-03-26T01:21:52.301Z,483.29
2019-03-26T01:22:52.214Z,474.52
2019-03-26T01:23:52.259Z,481.07
2019-03-26T01:24:52.191Z,477.79
2019-03-26T01:25:52.150Z,484.83
2019-03-26T01:26:52.818Z,475.37
2019-03-26T01:27:52.155Z,474.19
2019-03-26T01:28:52.161Z,477.34
2019-03-26T01:29:52.131Z,473.64
2019-03-26T01:30:52.127Z,480.86
2019-03-26T01:31:52.116Z,476.42
2019-03-26T01:32:52.098Z,473.83
2019-03-26T01:33:52.177Z,477.19
2019-03-26T01:34:52.107Z,480.08
2019-03-26T01:35:52.054Z,471.57
2019-03-26T01:36:52.055Z,477.01
2019-03-26T01:37:52.044Z,478.87
2019-03-26T01:38:52.048Z,472.90
2019-03-26T01:39:52.116Z,470.21
2019-03-26T01:40:52.021Z,470.99
2019-03-26T01:41:52.003Z,471.99
2019-03-26T01:42:52.024Z,472.83
2019-03-26T01:43:52.893Z,475.74
2019-03-26T01:44:52.003Z,474.80
2019-03-26T01:45:51.964Z,474.69
2019-03-26T01:46:51.964Z,475.48
2019-03-26T01:47:51.935Z,477.05
2019-03-26T01:48:51.974Z,479.05
2019-03-26T01:49:52.008Z,473.40
2019-03-26T01:50:51.909Z,503.84
2019-03-26T01:51:51.906Z,472.56
2019-03-26T01:52:51.926Z,478.41
2019-03-26T01:53:51.872Z,488.80
2019-03-26T01:54:51.942Z,472.53
2019-03-26T01:55:51.966Z,473.16
2019-03-26T01:56:51.914Z,475.02
2019-03-26T01:57:51.845Z,473.38
2019-03-26T01:58:51.848Z,476.20
2019-03-26T01:59:51.869Z,474.65
2019-03-26T02:00:51.811Z,477.81
2019-03-26T02:01:51.800Z,471.62
2019-03-26T02:02:51.810Z,472.78
2019-03-26T02:03:51.809Z,476.58
2019-03-26T02:04:59.798Z,475.05
2019-03-26T02:05:52.750Z,472.24
2019-03-26T02:06:51.747Z,472.76
2019-03-26T02:07:51.749Z,477.62
2019-03-26T02:08:51.727Z,478.23
2019-03-26T02:09:51.760Z,479.06
2019-03-26T02:10:51.731Z,478.04
2019-03-26T02:11:51.721Z,470.94
2019-03-26T02:12:51.724Z,471.35
2019-03-26T02:13:51.661Z,476.71
2019-03-26T02:14:51.653Z,478.37
2019-03-26T02:15:51.702Z,479.64
2019-03-26T02:16:51.659Z,473.16
2019-03-26T02:17:51.627Z,477.74
2019-03-26T02:18:51.619Z,467.85
2019-03-26T02:19:51.614Z,471.58
2019-03-26T02:20:51.590Z,473.40
2019-03-26T02:21:51.603Z,478.68
2019-03-26T02:22:51.599Z,470.65
2019-03-26T02:23:51.675Z,476.21
2019-03-26T02:24:51.541Z,473.38
2019-03-26T02:25:51.587Z,472.05
2019-03-26T02:26:51.636Z,473.98
2019-03-26T02:27:51.554Z,471.90
2019-03-26T02:28:51.543Z,486.78
2019-03-26T02:29:51.565Z,473.96
2019-03-26T02:30:51.486Z,478.10
2019-03-26T02:31:51.499Z,476.27
2019-03-26T02:32:51.495Z,469.55
2019-03-26T02:33:51.497Z,473.80
2019-03-26T02:34:51.461Z,477.86
2019-03-26T02:35:51.452Z,486.82
2019-03-26T02:36:51.428Z,470.14
2019-03-26T02:37:51.436Z,478.93
2019-03-26T02:38:51.430Z,476.55
2019-03-26T02:39:51.421Z,478.61
2019-03-26T02:40:51.372Z,486.55
2019-03-26T02:41:51.430Z,474.17
2019-03-26T02:42:51.417Z,476.25
2019-03-26T02:43:51.441Z,481.65
2019-03-26T02:44:51.342Z,486.68
2019-03-26T02:45:51.359Z,471.13
2019-03-26T02:46:51.338Z,476.19
2019-03-26T02:47:51.325Z,491.92
2019-03-26T02:48:51.342Z,476.58
2019-03-26T02:49:51.372Z,491.06
2019-03-26T02:50:51.297Z,478.30
2019-03-26T02:51:51.283Z,475.50
2019-03-26T02:52:51.255Z,478.62
2019-03-26T02:53:51.337Z,472.87
2019-03-26T02:54:51.246Z,473.49
2019-03-26T02:55:51.273Z,489.75
2019-03-26T02:56:51.224Z,479.51
2019-03-26T02:57:51.237Z,482.12
2019-03-26T02:58:51.203Z,470.72
2019-03-26T02:59:51.195Z,470.19
2019-03-26T03:00:51.190Z,471.11
2019-03-26T03:01:51.191Z,481.84
2019-03-26T03:02:51.179Z,469.83
2019-03-26T03:03:51.150Z,471.96
2019-03-26T03:04:51.160Z,472.90
2019-03-26T03:05:51.173Z,484.20
2019-03-26T03:06:51.193Z,474.85
2019-03-26T03:07:51.103Z,467.40
2019-03-26T03:08:51.122Z,475.36
2019-03-26T03:09:51.100Z,475.25
2019-03-26T03:10:51.081Z,475.01
2019-03-26T03:11:51.121Z,488.45
2019-03-26T03:12:51.145Z,476.23
2019-03-26T03:13:51.049Z,480.29
2019-03-26T03:14:51.058Z,473.77
2019-03-26T03:15:51.050Z,472.25
2019-03-26T03:16:51.023Z,471.67
2019-03-26T03:17:50.989Z,469.10
2019-03-26T03:18:51.060Z,472.32
2019-03-26T03:19:50.991Z,477.92
2019-03-26T03:20:50.978Z,475.87
2019-03-26T03:21:50.985Z,472.76
2019-03-26T03:22:50.960Z,477.61
2019-03-26T03:23:50.956Z,483.46
2019-03-26T03:24:50.932Z,480.77
2019-03-26T03:25:50.947Z,487.82
2019-03-26T03:26:50.940Z,479.30
2019-03-26T03:27:50.912Z,473.13
2019-03-26T03:28:50.918Z,483.11
2019-03-26T03:29:50.925Z,483.27
2019-03-26T03:30:50.872Z,486.27
2019-03-26T03:31:50.967Z,480.75
2019-03-26T03:32:50.879Z,487.95
2019-03-26T03:33:50.862Z,472.77
2019-03-26T03:34:50.843Z,477.82
2019-03-26T03:35:52.909Z,483.81
2019-03-26T03:36:50.799Z,474.37
2019-03-26T03:37:50.812Z,479.44
2019-03-26T03:38:50.822Z,471.58
2019-03-26T03:39:50.834Z,470.54
2019-03-26T03:40:50.780Z,480.42
2019-03-26T03:41:50.769Z,474.89
2019-03-26T03:42:50.787Z,480.57
2019-03-26T03:43:50.745Z,475.29
2019-03-26T03:44:50.724Z,475.45
2019-03-26T03:45:50.720Z,472.53
2019-03-26T03:46:50.713Z,478.01
2019-03-26T03:47:50.727Z,480.66
2019-03-26T03:48:50.698Z,482.06
2019-03-26T03:49:50.749Z,473.99
2019-03-26T03:50:50.707Z,477.21
2019-03-26T03:51:50.668Z,482.50
2019-03-26T03:52:50.682Z,468.13
2019-03-26T03:53:50.644Z,502.52
2019-03-26T03:54:50.610Z,474.53
2019-03-26T03:55:50.726Z,479.11
2019-03-26T03:56:50.628Z,483.83
2019-03-26T03:57:52.774Z,485.52
2019-03-26T03:58:50.625Z,480.97
2019-03-26T03:59:51.396Z,476.67
2019-03-26T04:00:50.574Z,475.15
2019-03-26T04:01:50.613Z,482.90
2019-03-26T04:02:50.557Z,477.43
2019-03-26T04:03:50.549Z,472.81
2019-03-26T04:04:50.537Z,476.26
2019-03-26T04:05:50.527Z,495.77
2019-03-26T04:06:50.512Z,478.33
2019-03-26T04:07:50.513Z,473.89
2019-03-26T04:08:50.502Z,475.91
2019-03-26T04:09:50.492Z,474.52
2019-03-26T04:10:50.503Z,476.00
2019-03-26T04:11:50.488Z,478.66
2019-03-26T04:12:50.458Z,473.70
2019-03-26T04:13:50.437Z,473.02
2019-03-26T04:14:50.424Z,477.95
2019-03-26T04:15:50.404Z,472.71
2019-03-26T04:16:50.394Z,478.66
2019-03-26T04:17:50.411Z,494.73
2019-03-26T04:18:50.365Z,476.64
2019-03-26T04:19:50.352Z,473.02
2019-03-26T04:20:50.347Z,482.71
2019-03-26T04:21:50.499Z,471.50
2019-03-26T04:22:50.395Z,481.23
2019-03-26T04:23:52.243Z,477.20
2019-03-26T04:24:50.868Z,485.05
2019-03-26T04:25:50.860Z,488.94
2019-03-26T04:26:50.354Z,474.01
2019-03-26T04:27:50.303Z,472.40
2019-03-26T04:28:50.282Z,476.71
2019-03-26T04:29:50.275Z,478.37
2019-03-26T04:30:50.264Z,480.38
2019-03-26T04:31:50.298Z,475.28
2019-03-26T04:32:50.221Z,483.19
2019-03-26T04:33:50.295Z,477.32
2019-03-26T04:34:50.905Z,482.78
2019-03-26T04:35:50.211Z,485.19
2019-03-26T04:36:51.222Z,479.70
2019-03-26T04:37:50.179Z,483.52
2019-03-26T04:38:50.205Z,478.26
2019-03-26T04:39:50.195Z,489.35
2019-03-26T04:40:50.328Z,478.26
2019-03-26T04:41:50.141Z,476.28
2019-03-26T04:42:50.116Z,479.20
2019-03-26T04:43:50.129Z,482.96
2019-03-26T04:44:50.156Z,476.45
2019-03-26T04:45:50.134Z,481.39
2019-03-26T04:46:50.094Z,480.91
2019-03-26T04:47:50.088Z,476.42
2019-03-26T04:48:50.083Z,479.35
2019-03-26T04:49:50.068Z,481.65
2019-03-26T04:50:50.044Z,475.01
2019-03-26T04:51:50.037Z,486.54
2019-03-26T04:52:50.042Z,478.21
2019-03-26T04:53:50.042Z,478.54
2019-03-26T04:54:50.021Z,484.78
2019-03-26T04:55:50.004Z,484.27
2019-03-26T04:56:50.009Z,479.87
2019-03-26T04:57:49.983Z,489.57
2019-03-26T04:58:49.972Z,482.12
2019-03-26T04:59:49.948Z,487.00
2019-03-26T05:00:49.923Z,481.79
2019-03-26T05:01:50.003Z,487.34
2019-03-26T05:02:49.922Z,487.51
2019-03-26T05:03:49.896Z,503.54
2019-03-26T05:04:49.890Z,479.91
2019-03-26T05:05:49.894Z,484.12
2019-03-26T05:06:49.942Z,485.54
2019-03-26T05:07:49.865Z,474.59
2019-03-26T05:08:49.886Z,477.90
2019-03-26T05:09:49.863Z,478.56
2019-03-26T05:10:49.827Z,487.43
2019-03-26T05:11:49.847Z,478.05
2019-03-26T05:12:49.840Z,478.63
2019-03-26T05:13:49.821Z,480.99
2019-03-26T05:14:49.818Z,483.69
2019-03-26T05:15:49.812Z,500.32
2019-03-26T05:16:49.788Z,480.44
2019-03-26T05:17:49.746Z,480.29
2019-03-26T05:18:49.765Z,477.44
2019-03-26T05:19:49.800Z,488.96
2019-03-26T05:20:49.858Z,500.81
2019-03-26T05:21:49.783Z,478.51
2019-03-26T05:22:49.726Z,479.71
2019-03-26T05:23:51.926Z,479.83
2019-03-26T05:24:49.696Z,475.47
2019-03-26T05:25:49.678Z,492.73
2019-03-26T05:26:49.694Z,481.44
2019-03-26T05:27:49.642Z,479.54
2019-03-26T05:28:49.649Z,473.49
2019-03-26T05:29:49.642Z,479.15
2019-03-26T05:30:49.680Z,480.26
2019-03-26T05:31:49.677Z,480.06
2019-03-26T05:32:51.486Z,473.85
2019-03-26T05:34:04.675Z,485.70
2019-03-26T05:34:57.945Z,490.07
2019-03-26T05:36:01.763Z,476.91
2019-03-26T05:36:51.802Z,490.66
2019-03-26T05:37:49.561Z,489.10
2019-03-26T05:38:49.580Z,481.43
2019-03-26T05:39:49.534Z,482.90
2019-03-26T05:40:49.588Z,478.11
2019-03-26T05:41:49.515Z,487.47
2019-03-26T05:42:49.632Z,499.81
2019-03-26T05:43:49.513Z,495.80
2019-03-26T05:44:49.499Z,479.55
2019-03-26T05:45:49.733Z,505.03
2019-03-26T05:46:49.481Z,481.76
2019-03-26T05:47:49.461Z,480.56
2019-03-26T05:48:49.451Z,483.49
2019-03-26T05:49:49.442Z,482.56
2019-03-26T05:50:49.452Z,493.62
2019-03-26T05:51:49.403Z,489.57
2019-03-26T05:52:49.449Z,490.76
2019-03-26T05:53:49.399Z,488.78
2019-03-26T05:54:49.379Z,482.41
2019-03-26T05:55:49.388Z,483.20
2019-03-26T05:56:49.366Z,498.83
2019-03-26T05:57:49.354Z,489.91
2019-03-26T05:58:49.351Z,479.33
2019-03-26T05:59:49.337Z,490.58
2019-03-26T06:00:49.321Z,476.73
2019-03-26T06:01:49.339Z,490.85
2019-03-26T06:02:49.294Z,476.76
2019-03-26T06:03:49.296Z,487.42
2019-03-26T06:04:49.349Z,481.27
2019-03-26T06:05:51.067Z,483.05
2019-03-26T06:06:49.382Z,476.38
2019-03-26T06:07:49.267Z,482.74
2019-03-26T06:08:49.234Z,495.17
2019-03-26T06:09:49.257Z,487.52
2019-03-26T06:10:49.251Z,495.15
2019-03-26T06:11:49.209Z,489.95
2019-03-26T06:12:50.407Z,481.36
2019-03-26T06:13:49.218Z,489.31
2019-03-26T06:14:49.263Z,483.88
2019-03-26T06:15:49.244Z,479.43
2019-03-26T06:16:49.191Z,482.70
2019-03-26T06:17:49.175Z,486.60
2019-03-26T06:18:49.149Z,485.29
2019-03-26T06:19:50.385Z,489.19
2019-03-26T06:20:49.142Z,494.29
2019-03-26T06:21:49.139Z,480.83
2019-03-26T06:22:49.120Z,498.11
2019-03-26T06:23:49.085Z,499.17
2019-03-26T06:24:49.070Z,480.75
2019-03-26T06:25:49.059Z,479.94
2019-03-26T06:26:49.072Z,474.81
2019-03-26T06:27:49.085Z,484.20
2019-03-26T06:28:49.091Z,481.30
2019-03-26T06:29:49.010Z,480.40
2019-03-26T06:30:49.053Z,485.80
2019-03-26T06:31:49.010Z,489.60
2019-03-26T06:32:49.032Z,490.13
2019-03-26T06:33:48.986Z,478.86
2019-03-26T06:34:48.964Z,498.34
2019-03-26T06:35:48.952Z,490.03
2019-03-26T06:36:48.982Z,496.50
2019-03-26T06:37:48.944Z,495.79
2019-03-26T06:38:48.933Z,479.65
2019-03-26T06:39:48.982Z,492.18
2019-03-26T06:40:48.898Z,483.05
2019-03-26T06:41:49.434Z,487.18
2019-03-26T06:42:48.933Z,478.22
2019-03-26T06:43:49.458Z,485.40
2019-03-26T06:44:49.509Z,484.40
2019-03-26T06:45:48.848Z,489.09
2019-03-26T06:46:48.924Z,489.12
2019-03-26T06:47:48.847Z,486.00
2019-03-26T06:48:48.856Z,488.41
2019-03-26T06:49:48.837Z,484.42
2019-03-26T06:50:48.802Z,493.84
2019-03-26T06:51:48.803Z,493.70
2019-03-26T06:52:48.820Z,481.36
2019-03-26T06:53:48.948Z,488.21
2019-03-26T06:54:51.525Z,490.22
2019-03-26T06:55:48.800Z,494.79
2019-03-26T06:56:48.761Z,497.29
2019-03-26T06:57:48.740Z,500.03
2019-03-26T06:58:48.789Z,492.39
2019-03-26T06:59:48.788Z,487.45
2019-03-26T07:00:48.703Z,484.85
2019-03-26T07:01:48.732Z,486.15
2019-03-26T07:02:48.711Z,492.45
2019-03-26T07:03:48.671Z,480.36
2019-03-26T07:04:48.675Z,478.30
2019-03-26T07:05:48.663Z,484.02
2019-03-26T07:06:48.620Z,485.45
2019-03-26T07:07:48.624Z,484.66
2019-03-26T07:08:48.654Z,488.85
2019-03-26T07:09:48.634Z,496.71
2019-03-26T07:10:48.643Z,486.49
2019-03-26T07:11:48.597Z,476.89
2019-03-26T07:12:48.671Z,491.94
2019-03-26T07:13:48.584Z,496.82
2019-03-26T07:14:48.581Z,489.03
2019-03-26T07:15:48.568Z,484.99
2019-03-26T07:16:48.572Z,499.10
2019-03-26T07:17:48.934Z,488.97
2019-03-26T07:18:48.892Z,487.59
2019-03-26T07:19:48.493Z,482.81
2019-03-26T07:20:48.490Z,487.33
2019-03-26T07:21:49.919Z,490.97
2019-03-26T07:22:48.496Z,487.41
2019-03-26T07:23:48.469Z,493.00
2019-03-26T07:24:48.435Z,484.17
2019-03-26T07:25:48.441Z,491.48
2019-03-26T07:26:48.461Z,484.24
2019-03-26T07:27:48.397Z,488.63
2019-03-26T07:28:48.409Z,482.65
2019-03-26T07:29:48.378Z,484.55
2019-03-26T07:30:48.369Z,484.12
2019-03-26T07:31:48.392Z,488.46
2019-03-26T07:32:48.353Z,495.00
2019-03-26T07:33:48.343Z,488.63
2019-03-26T07:34:48.347Z,489.91
2019-03-26T07:35:48.373Z,496.49
2019-03-26T07:36:48.301Z,487.81
2019-03-26T07:37:48.330Z,491.89
2019-03-26T07:38:48.316Z,486.62
2019-03-26T07:39:48.419Z,493.39
2019-03-26T07:40:48.306Z,485.43
2019-03-26T07:41:48.314Z,495.48
2019-03-26T07:42:48.246Z,489.63
2019-03-26T07:43:48.334Z,496.26
2019-03-26T07:44:48.265Z,493.28
2019-03-26T07:45:48.237Z,491.59
2019-03-26T07:46:48.212Z,494.03
2019-03-26T07:47:48.223Z,494.37
2019-03-26T07:48:48.518Z,503.27
2019-03-26T07:49:48.177Z,494.55
2019-03-26T07:50:48.187Z,497.68
2019-03-26T07:51:48.176Z,490.48
2019-03-26T07:52:48.152Z,491.12
2019-03-26T07:53:48.143Z,485.63
2019-03-26T07:54:48.187Z,490.24
2019-03-26T07:55:48.108Z,491.68
2019-03-26T07:56:48.112Z,495.34
2019-03-26T07:57:48.096Z,492.80
2019-03-26T07:58:48.109Z,495.89
2019-03-26T07:59:48.066Z,495.05
2019-03-26T08:00:48.045Z,495.68
2019-03-26T08:01:48.209Z,489.17
2019-03-26T08:02:48.103Z,493.65
2019-03-26T08:03:48.063Z,491.14
2019-03-26T08:04:48.057Z,494.34
2019-03-26T08:05:48.034Z,494.01
2019-03-26T08:06:48.071Z,488.81
2019-03-26T08:07:57.826Z,495.13
2019-03-26T08:08:49.065Z,486.98
2019-03-26T08:09:48.019Z,492.76
2019-03-26T08:10:48.095Z,490.48
2019-03-26T08:11:47.943Z,492.16
2019-03-26T08:12:47.953Z,489.82
2019-03-26T08:13:47.948Z,490.68
2019-03-26T08:14:48.071Z,490.43
2019-03-26T08:15:47.967Z,492.12
2019-03-26T08:16:47.957Z,493.30
2019-03-26T08:17:47.957Z,492.83
2019-03-26T08:18:47.872Z,488.21
2019-03-26T08:19:47.937Z,492.62
2019-03-26T08:20:47.896Z,489.13
2019-03-26T08:21:47.907Z,490.79
2019-03-26T08:22:47.841Z,492.28
2019-03-26T08:23:47.831Z,487.37
2019-03-26T08:24:48.708Z,491.95
2019-03-26T08:25:47.856Z,491.59
2019-03-26T08:26:51.793Z,492.46
2019-03-26T08:27:48.542Z,488.06
2019-03-26T08:28:47.774Z,492.04
2019-03-26T08:29:47.766Z,490.97
2019-03-26T08:30:50.148Z,493.36
2019-03-26T08:31:47.805Z,484.20
2019-03-26T08:32:47.762Z,490.02
2019-03-26T08:33:47.736Z,487.21
2019-03-26T08:34:47.702Z,487.37
2019-03-26T08:35:47.789Z,490.04
2019-03-26T08:36:47.822Z,487.93
2019-03-26T08:37:47.690Z,490.54
2019-03-26T08:38:47.663Z,497.08
2019-03-26T08:39:47.706Z,489.61
2019-03-26T08:40:47.672Z,491.86
2019-03-26T08:41:47.680Z,491.83
2019-03-26T08:42:47.653Z,488.46
2019-03-26T08:43:47.661Z,490.94
2019-03-26T08:44:47.613Z,490.52
2019-03-26T08:45:47.580Z,489.91
2019-03-26T08:46:47.587Z,493.47
2019-03-26T08:47:48.097Z,493.82
2019-03-26T08:48:47.577Z,492.57
2019-03-26T08:49:47.583Z,492.03
2019-03-26T08:50:47.567Z,496.55
2019-03-26T08:51:47.642Z,498.95
2019-03-26T08:52:47.558Z,493.70
2019-03-26T08:53:47.526Z,502.41
2019-03-26T08:54:47.538Z,496.24
2019-03-26T08:55:47.509Z,501.96
2019-03-26T08:56:47.520Z,499.81
2019-03-26T08:57:47.465Z,499.79
2019-03-26T08:58:47.454Z,496.56
2019-03-26T08:59:47.484Z,493.73
2019-03-26T09:00:47.485Z,495.00
2019-03-26T09:01:47.517Z,498.40
2019-03-26T09:02:47.574Z,498.10
2019-03-26T09:03:47.393Z,492.57
2019-03-26T09:04:47.410Z,491.82
2019-03-26T09:05:47.395Z,494.40
2019-03-26T09:06:47.966Z,491.09
2019-03-26T09:07:47.426Z,497.83
2019-03-26T09:08:47.362Z,496.87
2019-03-26T09:09:47.328Z,491.25
2019-03-26T09:10:52.025Z,494.46
2019-03-26T09:11:47.311Z,499.41
2019-03-26T09:12:47.319Z,500.98
2019-03-26T09:13:47.320Z,499.90
2019-03-26T09:14:47.306Z,499.85
2019-03-26T09:15:47.287Z,494.53
2019-03-26T09:16:47.272Z,490.97
2019-03-26T09:17:47.268Z,495.29
2019-03-26T09:18:47.255Z,489.91
2019-03-26T09:19:47.245Z,488.26
2019-03-26T09:20:47.235Z,498.59
2019-03-26T09:21:47.246Z,498.58
2019-03-26T09:22:47.207Z,494.43
2019-03-26T09:23:47.191Z,494.71
2019-03-26T09:24:47.203Z,502.45
2019-03-26T09:25:47.185Z,498.83
2019-03-26T09:26:47.187Z,493.70
2019-03-26T09:27:47.174Z,500.30
2019-03-26T09:28:48.029Z,497.41
2019-03-26T09:29:47.142Z,498.19
2019-03-26T09:30:47.168Z,497.73
2019-03-26T09:31:47.106Z,492.62
2019-03-26T09:32:47.087Z,494.70
2019-03-26T09:33:47.066Z,492.30
2019-03-26T09:34:47.118Z,496.20
2019-03-26T09:35:47.071Z,489.06
2019-03-26T09:36:47.073Z,492.40
2019-03-26T09:37:47.043Z,499.20
2019-03-26T09:38:47.030Z,501.89
2019-03-26T09:39:47.028Z,497.18
2019-03-26T09:40:47.028Z,479.54
2019-03-26T09:41:47.000Z,503.20
2019-03-26T09:42:46.979Z,500.34
2019-03-26T09:43:46.985Z,497.49
2019-03-26T09:44:47.000Z,499.48
2019-03-26T09:45:47.023Z,494.94
2019-03-26T09:46:47.355Z,499.07
2019-03-26T09:47:47.012Z,485.64
2019-03-26T09:48:46.958Z,498.31
2019-03-26T09:49:46.942Z,502.44
2019-03-26T09:50:46.958Z,498.64
2019-03-26T09:51:46.961Z,495.73
2019-03-26T09:52:46.937Z,499.17
2019-03-26T09:53:46.894Z,500.13
2019-03-26T09:54:46.881Z,498.52
2019-03-26T09:55:46.943Z,498.08
2019-03-26T09:56:46.873Z,502.58
2019-03-26T09:57:46.847Z,502.26
2019-03-26T09:58:46.863Z,499.62
2019-03-26T09:59:46.906Z,497.73
2019-03-26T10:00:46.934Z,503.46
2019-03-26T10:01:46.805Z,495.67
2019-03-26T10:02:46.854Z,495.22
2019-03-26T10:03:46.797Z,495.60
2019-03-26T10:04:46.769Z,495.39
2019-03-26T10:05:46.802Z,499.77
2019-03-26T10:06:46.739Z,491.48
2019-03-26T10:07:46.767Z,493.44
2019-03-26T10:08:52.494Z,495.79
2019-03-26T10:09:47.731Z,502.92
2019-03-26T10:10:46.707Z,499.18
2019-03-26T10:11:46.704Z,493.24
2019-03-26T10:12:46.679Z,493.55
2019-03-26T10:13:46.763Z,492.10
2019-03-26T10:14:46.667Z,496.64
2019-03-26T10:15:46.640Z,502.82
2019-03-26T10:16:46.650Z,498.53
2019-03-26T10:17:46.629Z,498.41
2019-03-26T10:18:46.626Z,488.07
2019-03-26T10:19:46.644Z,502.43
2019-03-26T10:20:46.603Z,496.55
2019-03-26T10:21:46.587Z,493.98
2019-03-26T10:22:46.571Z,488.68
2019-03-26T10:23:46.569Z,507.05
2019-03-26T10:24:46.587Z,498.21
2019-03-26T10:25:46.605Z,497.33
2019-03-26T10:26:46.573Z,503.17
2019-03-26T10:27:46.507Z,499.07
2019-03-26T10:28:46.555Z,504.23
2019-03-26T10:29:46.502Z,501.81
2019-03-26T10:30:46.508Z,501.96
2019-03-26T10:31:46.499Z,497.67
2019-03-26T10:32:46.459Z,501.81
2019-03-26T10:33:46.465Z,502.34
2019-03-26T10:34:46.469Z,501.93
2019-03-26T10:35:46.449Z,504.57
2019-03-26T10:36:46.455Z,489.13
2019-03-26T10:37:46.399Z,505.21
2019-03-26T10:38:46.451Z,503.89
2019-03-26T10:39:46.391Z,500.57
2019-03-26T10:40:46.406Z,505.30
2019-03-26T10:41:46.371Z,507.51
2019-03-26T10:42:46.395Z,500.41
2019-03-26T10:43:46.340Z,503.15
2019-03-26T10:44:46.339Z,502.77
2019-03-26T10:45:46.331Z,506.14
2019-03-26T10:46:46.372Z,499.32
2019-03-26T10:47:46.329Z,500.20
2019-03-26T10:48:46.340Z,507.79
2019-03-26T10:49:46.287Z,499.11
2019-03-26T10:50:46.282Z,499.84
2019-03-26T10:51:46.292Z,499.88
2019-03-26T10:52:46.331Z,497.68
2019-03-26T10:53:46.258Z,501.20
2019-03-26T10:54:46.224Z,498.81
2019-03-26T10:55:46.286Z,496.80
2019-03-26T10:56:46.231Z,498.46
2019-03-26T10:57:46.232Z,498.96
2019-03-26T10:58:46.191Z,501.99
2019-03-26T10:59:46.210Z,498.84
2019-03-26T11:00:46.188Z,498.57
2019-03-26T11:01:46.168Z,496.95
2019-03-26T11:02:46.138Z,497.02
2019-03-26T11:03:46.172Z,494.89
2019-03-26T11:04:46.133Z,492.96
2019-03-26T11:05:46.163Z,504.35
2019-03-26T11:06:46.102Z,482.97
2019-03-26T11:07:46.111Z,494.61
2019-03-26T11:08:46.083Z,495.07
2019-03-26T11:09:46.087Z,498.75
2019-03-26T11:10:46.092Z,493.67
2019-03-26T11:11:46.034Z,493.28
2019-03-26T11:12:46.061Z,497.11
2019-03-26T11:13:46.050Z,485.75
2019-03-26T11:14:46.032Z,495.82
2019-03-26T11:15:46.101Z,497.02
2019-03-26T11:16:45.995Z,492.28
2019-03-26T11:17:45.995Z,500.86
2019-03-26T11:18:45.990Z,490.25
2019-03-26T11:19:46.511Z,498.58
2019-03-26T11:20:45.958Z,491.42
2019-03-26T11:21:45.955Z,499.08
2019-03-26T11:22:45.950Z,496.49
2019-03-26T11:23:45.946Z,495.31
2019-03-26T11:24:45.952Z,503.84
2019-03-26T11:25:45.952Z,495.73
2019-03-26T11:26:45.888Z,497.19
2019-03-26T11:27:45.901Z,501.67
2019-03-26T11:28:45.891Z,493.21
2019-03-26T11:29:45.864Z,499.83
2019-03-26T11:30:45.851Z,492.58
2019-03-26T11:31:45.853Z,497.35
2019-03-26T11:32:45.826Z,496.98
2019-03-26T11:33:45.829Z,501.17
2019-03-26T11:34:45.805Z,492.28
2019-03-26T11:35:45.851Z,500.55
2019-03-26T11:36:45.835Z,496.15
2019-03-26T11:37:45.779Z,505.92
2019-03-26T11:38:45.788Z,512.76
2019-03-26T11:39:45.775Z,517.12
2019-03-26T11:40:45.781Z,511.14
2019-03-26T11:41:45.757Z,510.45
2019-03-26T11:42:45.719Z,498.81
2019-03-26T11:43:45.704Z,506.08
2019-03-26T11:44:45.702Z,499.14
2019-03-26T11:45:45.708Z,512.88
2019-03-26T11:46:45.686Z,515.11
2019-03-26T11:47:45.666Z,510.45
2019-03-26T11:48:45.713Z,516.93
2019-03-26T11:49:45.666Z,519.66
2019-03-26T11:50:45.635Z,506.27
2019-03-26T11:51:45.640Z,521.24
2019-03-26T11:52:45.624Z,505.09
2019-03-26T11:53:45.595Z,519.12
2019-03-26T11:54:45.598Z,506.77
2019-03-26T11:55:45.664Z,511.75
2019-03-26T11:56:45.588Z,509.24
2019-03-26T11:57:45.604Z,518.71
2019-03-26T11:58:45.567Z,512.05
2019-03-26T11:59:45.556Z,518.43
2019-03-26T12:00:45.532Z,501.44
2019-03-26T12:01:45.548Z,507.13
2019-03-26T12:02:45.519Z,525.87
2019-03-26T12:03:45.516Z,523.16
2019-03-26T12:04:45.513Z,516.46
2019-03-26T12:05:45.463Z,489.15
2019-03-26T12:06:45.470Z,512.00
2019-03-26T12:07:45.453Z,509.79
2019-03-26T12:08:45.455Z,511.06
2019-03-26T12:09:46.803Z,501.26
2019-03-26T12:10:45.461Z,512.33
2019-03-26T12:11:45.461Z,506.60
2019-03-26T12:12:45.401Z,499.62
2019-03-26T12:13:45.417Z,524.25
2019-03-26T12:14:45.418Z,500.63
2019-03-26T12:15:45.464Z,508.28
2019-03-26T12:16:45.360Z,517.94
2019-03-26T12:17:45.348Z,499.14
2019-03-26T12:18:45.343Z,502.47
2019-03-26T12:19:45.352Z,511.74
2019-03-26T12:20:45.338Z,503.30
2019-03-26T12:21:45.310Z,510.56
2019-03-26T12:22:45.297Z,514.31
2019-03-26T12:23:45.302Z,507.43
2019-03-26T12:24:45.288Z,503.56
2019-03-26T12:25:45.301Z,499.23
2019-03-26T12:26:45.931Z,501.04
2019-03-26T12:27:45.273Z,510.57
2019-03-26T12:28:45.235Z,522.73